KSGF/SGF METAR and TAF weather

Enter ICAO airport designator
Station Type Date Time Source
KSGF METAR 2019/10/21 02:52 UTC NOAA

KSGF 210252Z 14014G23KT 10SM CLR 18/13 A2965 RMK AO2 SLP034 T01830133 58015


Station Type Date Time Source
KSGF Decoded METAR 2019/10/21 02:52 UTC NOAA

SPRINGFIELD-BRANSON NATIONAL, MO, United States (KSGF) 37-14N 93-23W 389M
Oct 20, 2019 - 10:52 PM EDT / 2019.10.21 0252 UTC
Wind: from the SE (140 degrees) at 16 MPH (14 KT) gusting to 26 MPH (23 KT):0
Visibility: 10 mile(s):0
Sky conditions: clear
Temperature: 64.9 F (18.3 C)
Dew Point: 55.9 F (13.3 C)
Relative Humidity: 72%
Pressure (altimeter): 29.65 in. Hg (1004 hPa)
Pressure tendency: 0.04 inches (1.5 hPa) lower than three hours ago
ob: KSGF 210252Z 14014G23KT 10SM CLR 18/13 A2965 RMK AO2 SLP034 T01830133 58015
cycle: 3

Station Type Date Time Source
KSGF TAF 2019/10/20 18:22 UTC NOAA

TAF KSGF 201720Z 2018/2118 15012G17KT P6SM SCT250
FM210100 16017G25KT P6SM SCT250
TEMPO 2105/2109 1SM TSRA BR FEW010 SCT025 OVC050CB
FM210900 26012KT P6SM SCT007 OVC025
FM211200 27015G22KT P6SM FEW250

Example: see airport list